Winter, Wisconsin
Current Conditions -  °F | °C
As of 9:15 AM on Saturday 25 Oct 2014 (Local Time) from KRCX Reporting Station
Clear Clear  
Wind Chill: 52°   Ceiling: Unl
Heat Index: 52°   Visibility: 10mi
Dew Point: 35°   Wind: 12mph
Humidity: 52%   Direction: 290°WNW
Pressure: 29.94"   Gusts: 22mph
Location:  45.82°N, 91.01°W
Report Text: KRCX 251415Z AUTO 29010G19KT 10SM CLR 11/02 A2994 RMK AO2 T01120017
Loading
Personal Weather Stations






























Interactive Weather Map
Tropical Storm Tracking
New forecast layout! Learn more

10-Day Weather Forecast

Advertisements
Track Severe Weather on mobile